sensor_id;sensor_type;location;lat;lon;timestamp;temperature;humidity
21353;DHT22;10834;52.268;6.770;2023-04-25T00:00:54;7.60;99.90
21353;DHT22;10834;52.268;6.770;2023-04-25T00:03:40;7.50;99.90
21353;DHT22;10834;52.268;6.770;2023-04-25T00:06:26;7.40;99.90
21353;DHT22;10834;52.268;6.770;2023-04-25T00:09:12;7.40;99.90
21353;DHT22;10834;52.268;6.770;2023-04-25T00:11:58;7.40;99.90
21353;DHT22;10834;52.268;6.770;2023-04-25T00:14:44;7.30;99.90
21353;DHT22;10834;52.268;6.770;2023-04-25T00:17:32;7.30;99.90
21353;DHT22;10834;52.268;6.770;2023-04-25T00:20:18;7.30;99.90
21353;DHT22;10834;52.268;6.770;2023-04-25T00:23:04;7.20;99.90
21353;DHT22;10834;52.268;6.770;2023-04-25T00:25:51;7.30;99.90
21353;DHT22;10834;52.268;6.770;2023-04-25T00:28:37;7.20;99.90
21353;DHT22;10834;52.268;6.770;2023-04-25T00:31:23;7.20;99.90
21353;DHT22;10834;52.268;6.770;2023-04-25T00:34:09;7.20;99.90
21353;DHT22;10834;52.268;6.770;2023-04-25T00:36:55;7.20;99.90
21353;DHT22;10834;52.268;6.770;2023-04-25T00:39:42;7.20;99.90
21353;DHT22;10834;52.268;6.770;2023-04-25T00:42:28;7.20;99.90
21353;DHT22;10834;52.268;6.770;2023-04-25T00:45:15;7.20;99.90
21353;DHT22;10834;52.268;6.770;2023-04-25T00:48:03;7.10;99.90
21353;DHT22;10834;52.268;6.770;2023-04-25T00:50:54;7.20;99.90
21353;DHT22;10834;52.268;6.770;2023-04-25T00:53:41;7.10;99.90
21353;DHT22;10834;52.268;6.770;2023-04-25T00:56:27;7.10;99.90
21353;DHT22;10834;52.268;6.770;2023-04-25T00:59:14;7.00;99.90
21353;DHT22;10834;52.268;6.770;2023-04-25T01:02:01;7.00;99.90
21353;DHT22;10834;52.268;6.770;2023-04-25T01:04:48;6.90;99.90
21353;DHT22;10834;52.268;6.770;2023-04-25T01:07:34;6.90;99.90
21353;DHT22;10834;52.268;6.770;2023-04-25T01:10:20;6.90;99.90
21353;DHT22;10834;52.268;6.770;2023-04-25T01:13:06;6.80;99.90
21353;DHT22;10834;52.268;6.770;2023-04-25T01:15:53;6.70;99.90
21353;DHT22;10834;52.268;6.770;2023-04-25T01:18:40;6.60;99.90
21353;DHT22;10834;52.268;6.770;2023-04-25T01:21:27;6.60;99.90
21353;DHT22;10834;52.268;6.770;2023-04-25T01:24:15;6.50;99.90
21353;DHT22;10834;52.268;6.770;2023-04-25T01:27:02;6.50;99.90
21353;DHT22;10834;52.268;6.770;2023-04-25T01:29:49;6.40;99.90
21353;DHT22;10834;52.268;6.770;2023-04-25T01:32:36;6.40;99.90
21353;DHT22;10834;52.268;6.770;2023-04-25T01:35:24;6.40;99.90
21353;DHT22;10834;52.268;6.770;2023-04-25T01:38:12;6.40;99.90
21353;DHT22;10834;52.268;6.770;2023-04-25T01:40:57;6.40;99.90
21353;DHT22;10834;52.268;6.770;2023-04-25T01:43:44;6.40;99.90
21353;DHT22;10834;52.268;6.770;2023-04-25T01:46:31;6.50;99.90
21353;DHT22;10834;52.268;6.770;2023-04-25T01:49:17;6.50;99.90
21353;DHT22;10834;52.268;6.770;2023-04-25T01:52:03;6.50;99.90
21353;DHT22;10834;52.268;6.770;2023-04-25T01:54:50;6.50;99.90
21353;DHT22;10834;52.268;6.770;2023-04-25T01:57:36;6.50;99.90
21353;DHT22;10834;52.268;6.770;2023-04-25T02:00:23;6.50;99.90
21353;DHT22;10834;52.268;6.770;2023-04-25T02:03:09;6.50;99.90
21353;DHT22;10834;52.268;6.770;2023-04-25T02:05:55;6.50;99.90
21353;DHT22;10834;52.268;6.770;2023-04-25T02:08:41;6.50;99.90
21353;DHT22;10834;52.268;6.770;2023-04-25T02:11:27;6.50;99.90
21353;DHT22;10834;52.268;6.770;2023-04-25T02:14:13;6.50;99.90
21353;DHT22;10834;52.268;6.770;2023-04-25T02:16:59;6.50;99.90
21353;DHT22;10834;52.268;6.770;2023-04-25T02:19:45;6.50;99.90
21353;DHT22;10834;52.268;6.770;2023-04-25T02:22:31;6.50;99.90
21353;DHT22;10834;52.268;6.770;2023-04-25T02:25:20;6.50;99.90
21353;DHT22;10834;52.268;6.770;2023-04-25T02:28:06;6.50;99.90
21353;DHT22;10834;52.268;6.770;2023-04-25T02:30:52;6.40;99.90
21353;DHT22;10834;52.268;6.770;2023-04-25T02:33:38;6.40;99.90
21353;DHT22;10834;52.268;6.770;2023-04-25T02:36:24;6.40;99.90
21353;DHT22;10834;52.268;6.770;2023-04-25T02:39:12;6.50;99.90
21353;DHT22;10834;52.268;6.770;2023-04-25T02:41:58;6.40;99.90
21353;DHT22;10834;52.268;6.770;2023-04-25T02:44:44;6.40;99.90
21353;DHT22;10834;52.268;6.770;2023-04-25T02:47:30;6.40;99.90
21353;DHT22;10834;52.268;6.770;2023-04-25T02:50:16;6.40;99.90
21353;DHT22;10834;52.268;6.770;2023-04-25T02:53:04;6.30;99.90
21353;DHT22;10834;52.268;6.770;2023-04-25T02:55:50;6.30;99.90
21353;DHT22;10834;52.268;6.770;2023-04-25T02:58:38;6.40;99.90
21353;DHT22;10834;52.268;6.770;2023-04-25T03:01:24;6.30;99.90
21353;DHT22;10834;52.268;6.770;2023-04-25T03:04:10;6.40;99.90
21353;DHT22;10834;52.268;6.770;2023-04-25T03:06:56;6.30;99.90
21353;DHT22;10834;52.268;6.770;2023-04-25T03:09:42;6.30;99.90
21353;DHT22;10834;52.268;6.770;2023-04-25T03:12:28;6.30;99.90
21353;DHT22;10834;52.268;6.770;2023-04-25T03:15:14;6.20;99.90
21353;DHT22;10834;52.268;6.770;2023-04-25T03:18:02;6.10;99.90
21353;DHT22;10834;52.268;6.770;2023-04-25T03:20:48;6.10;99.90
21353;DHT22;10834;52.268;6.770;2023-04-25T03:23:34;6.20;99.90
21353;DHT22;10834;52.268;6.770;2023-04-25T03:26:20;6.20;99.90
21353;DHT22;10834;52.268;6.770;2023-04-25T03:29:07;6.20;99.90
21353;DHT22;10834;52.268;6.770;2023-04-25T03:31:53;6.20;99.90
21353;DHT22;10834;52.268;6.770;2023-04-25T03:34:39;6.20;99.90
21353;DHT22;10834;52.268;6.770;2023-04-25T03:37:25;6.20;99.90
21353;DHT22;10834;52.268;6.770;2023-04-25T03:40:12;6.10;99.90
21353;DHT22;10834;52.268;6.770;2023-04-25T03:42:58;6.10;99.90
21353;DHT22;10834;52.268;6.770;2023-04-25T03:45:44;6.10;99.90
21353;DHT22;10834;52.268;6.770;2023-04-25T03:48:30;6.10;99.90
21353;DHT22;10834;52.268;6.770;2023-04-25T03:51:16;6.10;99.90
21353;DHT22;10834;52.268;6.770;2023-04-25T03:54:02;6.10;99.90
21353;DHT22;10834;52.268;6.770;2023-04-25T03:56:48;6.10;99.90
21353;DHT22;10834;52.268;6.770;2023-04-25T03:59:34;6.00;99.90
21353;DHT22;10834;52.268;6.770;2023-04-25T04:02:20;6.10;99.90
21353;DHT22;10834;52.268;6.770;2023-04-25T04:05:06;6.10;99.90
21353;DHT22;10834;52.268;6.770;2023-04-25T04:07:53;6.10;99.90
21353;DHT22;10834;52.268;6.770;2023-04-25T04:10:39;6.10;99.90
21353;DHT22;10834;52.268;6.770;2023-04-25T04:13:28;6.10;99.90
21353;DHT22;10834;52.268;6.770;2023-04-25T04:16:14;6.10;99.90
21353;DHT22;10834;52.268;6.770;2023-04-25T04:19:00;6.10;99.90
21353;DHT22;10834;52.268;6.770;2023-04-25T04:21:46;6.10;99.90
21353;DHT22;10834;52.268;6.770;2023-04-25T04:24:32;6.10;99.90
21353;DHT22;10834;52.268;6.770;2023-04-25T04:27:19;6.00;99.90
21353;DHT22;10834;52.268;6.770;2023-04-25T04:30:05;6.10;99.90
21353;DHT22;10834;52.268;6.770;2023-04-25T04:32:52;6.10;99.90
21353;DHT22;10834;52.268;6.770;2023-04-25T04:35:38;6.10;99.90
21353;DHT22;10834;52.268;6.770;2023-04-25T04:38:24;6.10;99.90
21353;DHT22;10834;52.268;6.770;2023-04-25T04:41:11;6.00;99.90
21353;DHT22;10834;52.268;6.770;2023-04-25T04:43:57;6.00;99.90
21353;DHT22;10834;52.268;6.770;2023-04-25T04:46:43;6.10;99.90
21353;DHT22;10834;52.268;6.770;2023-04-25T04:49:30;6.20;99.90
21353;DHT22;10834;52.268;6.770;2023-04-25T04:52:16;6.20;99.90
21353;DHT22;10834;52.268;6.770;2023-04-25T04:55:03;6.20;99.90
21353;DHT22;10834;52.268;6.770;2023-04-25T04:57:49;6.20;99.90
21353;DHT22;10834;52.268;6.770;2023-04-25T05:00:35;6.30;99.90
21353;DHT22;10834;52.268;6.770;2023-04-25T05:03:22;6.30;99.90
21353;DHT22;10834;52.268;6.770;2023-04-25T05:06:08;6.30;99.90
21353;DHT22;10834;52.268;6.770;2023-04-25T05:08:55;6.30;99.90
21353;DHT22;10834;52.268;6.770;2023-04-25T05:11:41;6.40;99.90
21353;DHT22;10834;52.268;6.770;2023-04-25T05:14:27;6.40;99.90
21353;DHT22;10834;52.268;6.770;2023-04-25T05:17:13;6.40;99.90
21353;DHT22;10834;52.268;6.770;2023-04-25T05:19:59;6.40;99.90
21353;DHT22;10834;52.268;6.770;2023-04-25T05:22:45;6.50;99.90
21353;DHT22;10834;52.268;6.770;2023-04-25T05:25:31;6.60;99.90
21353;DHT22;10834;52.268;6.770;2023-04-25T05:28:17;6.70;99.90
21353;DHT22;10834;52.268;6.770;2023-04-25T05:31:03;6.70;99.90
21353;DHT22;10834;52.268;6.770;2023-04-25T05:33:49;6.80;99.90
21353;DHT22;10834;52.268;6.770;2023-04-25T05:36:35;6.80;99.90
21353;DHT22;10834;52.268;6.770;2023-04-25T05:39:22;6.90;99.90
21353;DHT22;10834;52.268;6.770;2023-04-25T05:42:08;6.90;99.90
21353;DHT22;10834;52.268;6.770;2023-04-25T05:44:54;7.00;99.90
21353;DHT22;10834;52.268;6.770;2023-04-25T05:47:40;7.10;99.90
21353;DHT22;10834;52.268;6.770;2023-04-25T05:50:26;7.20;99.90
21353;DHT22;10834;52.268;6.770;2023-04-25T05:53:12;7.20;99.90
21353;DHT22;10834;52.268;6.770;2023-04-25T05:55:58;7.20;99.90
21353;DHT22;10834;52.268;6.770;2023-04-25T05:58:44;7.20;99.90
21353;DHT22;10834;52.268;6.770;2023-04-25T06:01:30;7.30;99.90
21353;DHT22;10834;52.268;6.770;2023-04-25T06:04:17;7.40;99.90
21353;DHT22;10834;52.268;6.770;2023-04-25T06:07:03;7.50;99.90
21353;DHT22;10834;52.268;6.770;2023-04-25T06:09:49;7.60;99.90
21353;DHT22;10834;52.268;6.770;2023-04-25T06:12:35;7.60;99.90
21353;DHT22;10834;52.268;6.770;2023-04-25T06:15:21;7.90;99.90
21353;DHT22;10834;52.268;6.770;2023-04-25T06:18:07;8.00;99.90
21353;DHT22;10834;52.268;6.770;2023-04-25T06:20:53;8.00;99.90
21353;DHT22;10834;52.268;6.770;2023-04-25T06:23:39;8.10;99.90
21353;DHT22;10834;52.268;6.770;2023-04-25T06:26:26;8.20;99.90
21353;DHT22;10834;52.268;6.770;2023-04-25T06:29:11;8.30;99.90
21353;DHT22;10834;52.268;6.770;2023-04-25T06:31:58;8.40;99.90
21353;DHT22;10834;52.268;6.770;2023-04-25T06:34:44;8.50;99.90
21353;DHT22;10834;52.268;6.770;2023-04-25T06:37:31;8.50;99.90
21353;DHT22;10834;52.268;6.770;2023-04-25T06:40:17;8.70;99.90
21353;DHT22;10834;52.268;6.770;2023-04-25T06:43:03;8.80;99.90
21353;DHT22;10834;52.268;6.770;2023-04-25T06:45:49;8.90;99.90
21353;DHT22;10834;52.268;6.770;2023-04-25T06:48:35;9.30;99.90
21353;DHT22;10834;52.268;6.770;2023-04-25T06:51:21;9.90;99.90
21353;DHT22;10834;52.268;6.770;2023-04-25T06:54:08;10.50;99.90
21353;DHT22;10834;52.268;6.770;2023-04-25T06:56:54;12.40;99.90
21353;DHT22;10834;52.268;6.770;2023-04-25T06:59:40;17.00;99.90
21353;DHT22;10834;52.268;6.770;2023-04-25T07:02:26;20.90;72.90
21353;DHT22;10834;52.268;6.770;2023-04-25T07:05:12;22.00;55.20
21353;DHT22;10834;52.268;6.770;2023-04-25T07:07:58;20.80;52.00
21353;DHT22;10834;52.268;6.770;2023-04-25T07:10:44;20.60;53.10
21353;DHT22;10834;52.268;6.770;2023-04-25T07:13:31;19.50;54.70
21353;DHT22;10834;52.268;6.770;2023-04-25T07:16:18;20.60;54.70
21353;DHT22;10834;52.268;6.770;2023-04-25T07:19:03;20.30;51.70
21353;DHT22;10834;52.268;6.770;2023-04-25T07:21:50;20.80;53.00
21353;DHT22;10834;52.268;6.770;2023-04-25T07:24:36;24.50;49.40
21353;DHT22;10834;52.268;6.770;2023-04-25T07:27:22;26.90;43.20
21353;DHT22;10834;52.268;6.770;2023-04-25T07:30:08;28.50;41.20
21353;DHT22;10834;52.268;6.770;2023-04-25T07:32:54;30.60;36.90
21353;DHT22;10834;52.268;6.770;2023-04-25T07:35:41;32.40;34.70
21353;DHT22;10834;52.268;6.770;2023-04-25T07:38:27;33.80;31.80
21353;DHT22;10834;52.268;6.770;2023-04-25T07:41:13;34.00;30.30
21353;DHT22;10834;52.268;6.770;2023-04-25T07:43:59;31.70;30.60
21353;DHT22;10834;52.268;6.770;2023-04-25T07:46:45;28.50;31.30
21353;DHT22;10834;52.268;6.770;2023-04-25T07:49:31;25.40;34.80
21353;DHT22;10834;52.268;6.770;2023-04-25T07:52:18;24.20;37.30
21353;DHT22;10834;52.268;6.770;2023-04-25T07:55:04;24.50;38.80
21353;DHT22;10834;52.268;6.770;2023-04-25T07:57:50;25.40;38.10
21353;DHT22;10834;52.268;6.770;2023-04-25T08:00:36;25.80;36.20
21353;DHT22;10834;52.268;6.770;2023-04-25T08:03:22;24.40;37.80
21353;DHT22;10834;52.268;6.770;2023-04-25T08:06:08;22.80;37.90
21353;DHT22;10834;52.268;6.770;2023-04-25T08:08:55;20.80;41.30
21353;DHT22;10834;52.268;6.770;2023-04-25T08:11:41;18.90;43.00
21353;DHT22;10834;52.268;6.770;2023-04-25T08:14:28;17.70;47.00
21353;DHT22;10834;52.268;6.770;2023-04-25T08:17:17;17.00;48.60
21353;DHT22;10834;52.268;6.770;2023-04-25T08:20:03;16.90;50.40
21353;DHT22;10834;52.268;6.770;2023-04-25T08:22:51;16.60;50.70
21353;DHT22;10834;52.268;6.770;2023-04-25T08:25:37;16.10;50.30
21353;DHT22;10834;52.268;6.770;2023-04-25T08:28:23;15.50;52.00
21353;DHT22;10834;52.268;6.770;2023-04-25T08:31:09;15.10;52.20
21353;DHT22;10834;52.268;6.770;2023-04-25T08:33:56;15.00;52.90
21353;DHT22;10834;52.268;6.770;2023-04-25T08:36:42;15.40;53.40
21353;DHT22;10834;52.268;6.770;2023-04-25T08:39:28;16.20;53.70
21353;DHT22;10834;52.268;6.770;2023-04-25T08:42:15;17.50;52.10
21353;DHT22;10834;52.268;6.770;2023-04-25T08:45:02;18.40;49.90
21353;DHT22;10834;52.268;6.770;2023-04-25T08:47:53;18.70;47.80
21353;DHT22;10834;52.268;6.770;2023-04-25T08:50:51;18.20;46.80
21353;DHT22;10834;52.268;6.770;2023-04-25T08:53:39;17.10;48.70
21353;DHT22;10834;52.268;6.770;2023-04-25T08:56:28;16.00;51.10
21353;DHT22;10834;52.268;6.770;2023-04-25T08:59:15;15.30;53.70
21353;DHT22;10834;52.268;6.770;2023-04-25T09:02:01;15.90;55.10
21353;DHT22;10834;52.268;6.770;2023-04-25T09:04:47;16.80;53.20
21353;DHT22;10834;52.268;6.770;2023-04-25T09:07:34;16.70;51.80
21353;DHT22;10834;52.268;6.770;2023-04-25T09:10:20;16.40;50.50
21353;DHT22;10834;52.268;6.770;2023-04-25T09:15:57;18.60;50.90
21353;DHT22;10834;52.268;6.770;2023-04-25T09:18:43;19.40;47.80
21353;DHT22;10834;52.268;6.770;2023-04-25T09:21:29;20.80;43.60
21353;DHT22;10834;52.268;6.770;2023-04-25T09:24:36;23.30;42.90
21353;DHT22;10834;52.268;6.770;2023-04-25T09:27:22;26.90;37.80
21353;DHT22;10834;52.268;6.770;2023-04-25T09:30:08;29.70;34.10
21353;DHT22;10834;52.268;6.770;2023-04-25T09:32:57;31.40;31.50
21353;DHT22;10834;52.268;6.770;2023-04-25T09:35:44;32.60;30.30
21353;DHT22;10834;52.268;6.770;2023-04-25T09:38:33;30.50;27.70
21353;DHT22;10834;52.268;6.770;2023-04-25T09:41:26;27.90;30.50
21353;DHT22;10834;52.268;6.770;2023-04-25T09:44:14;26.20;31.50
21353;DHT22;10834;52.268;6.770;2023-04-25T09:47:01;23.30;34.30
21353;DHT22;10834;52.268;6.770;2023-04-25T09:49:48;20.70;38.40
21353;DHT22;10834;52.268;6.770;2023-04-25T09:52:34;18.50;43.00
21353;DHT22;10834;52.268;6.770;2023-04-25T09:55:20;17.00;47.10
21353;DHT22;10834;52.268;6.770;2023-04-25T09:58:06;16.00;49.80
21353;DHT22;10834;52.268;6.770;2023-04-25T10:00:59;15.30;52.60
21353;DHT22;10834;52.268;6.770;2023-04-25T10:03:46;14.90;53.80
21353;DHT22;10834;52.268;6.770;2023-04-25T10:06:34;17.10;56.40
21353;DHT22;10834;52.268;6.770;2023-04-25T10:09:25;19.50;49.10
21353;DHT22;10834;52.268;6.770;2023-04-25T10:12:11;19.10;46.60
21353;DHT22;10834;52.268;6.770;2023-04-25T10:14:59;17.90;45.60
21353;DHT22;10834;52.268;6.770;2023-04-25T10:17:45;16.70;47.30
21353;DHT22;10834;52.268;6.770;2023-04-25T10:20:31;16.20;49.80
21353;DHT22;10834;52.268;6.770;2023-04-25T10:23:18;16.20;51.80
21353;DHT22;10834;52.268;6.770;2023-04-25T10:26:04;18.30;51.30
21353;DHT22;10834;52.268;6.770;2023-04-25T10:29:01;21.60;45.00
21353;DHT22;10834;52.268;6.770;2023-04-25T10:31:47;24.30;41.90
21353;DHT22;10834;52.268;6.770;2023-04-25T10:34:41;24.60;40.60
21353;DHT22;10834;52.268;6.770;2023-04-25T10:37:27;24.80;37.20
21353;DHT22;10834;52.268;6.770;2023-04-25T10:40:14;23.70;38.20
21353;DHT22;10834;52.268;6.770;2023-04-25T10:46:24;22.00;39.60
21353;DHT22;10834;52.268;6.770;2023-04-25T10:49:35;20.60;38.80
21353;DHT22;10834;52.268;6.770;2023-04-25T10:52:26;19.80;41.10
21353;DHT22;10834;52.268;6.770;2023-04-25T10:55:12;19.50;43.30
21353;DHT22;10834;52.268;6.770;2023-04-25T10:57:58;19.30;42.90
21353;DHT22;10834;52.268;6.770;2023-04-25T11:00:44;19.10;42.70
21353;DHT22;10834;52.268;6.770;2023-04-25T11:03:30;19.00;44.40
21353;DHT22;10834;52.268;6.770;2023-04-25T11:06:23;18.90;44.10
21353;DHT22;10834;52.268;6.770;2023-04-25T11:09:13;17.80;45.40
21353;DHT22;10834;52.268;6.770;2023-04-25T11:12:00;16.50;47.40
21353;DHT22;10834;52.268;6.770;2023-04-25T11:14:46;16.00;50.70
21353;DHT22;10834;52.268;6.770;2023-04-25T11:17:32;15.90;50.70
21353;DHT22;10834;52.268;6.770;2023-04-25T11:20:19;15.90;52.10
21353;DHT22;10834;52.268;6.770;2023-04-25T11:23:05;15.80;51.50
21353;DHT22;10834;52.268;6.770;2023-04-25T11:25:51;15.40;51.70
21353;DHT22;10834;52.268;6.770;2023-04-25T11:28:38;15.10;51.30
21353;DHT22;10834;52.268;6.770;2023-04-25T11:31:25;14.90;52.40
21353;DHT22;10834;52.268;6.770;2023-04-25T11:34:11;15.10;53.20
21353;DHT22;10834;52.268;6.770;2023-04-25T11:36:57;15.20;52.20
21353;DHT22;10834;52.268;6.770;2023-04-25T11:39:44;15.50;49.90
21353;DHT22;10834;52.268;6.770;2023-04-25T11:42:32;15.70;49.40
21353;DHT22;10834;52.268;6.770;2023-04-25T11:45:19;16.00;49.40
21353;DHT22;10834;52.268;6.770;2023-04-25T11:48:05;16.70;49.60
21353;DHT22;10834;52.268;6.770;2023-04-25T11:50:51;17.20;49.00
21353;DHT22;10834;52.268;6.770;2023-04-25T11:53:41;17.30;48.20
21353;DHT22;10834;52.268;6.770;2023-04-25T11:56:28;17.00;49.10
21353;DHT22;10834;52.268;6.770;2023-04-25T11:59:14;16.50;50.10
21353;DHT22;10834;52.268;6.770;2023-04-25T12:02:00;16.40;54.30
21353;DHT22;10834;52.268;6.770;2023-04-25T12:04:47;16.60;54.20
21353;DHT22;10834;52.268;6.770;2023-04-25T12:07:33;16.40;54.60
21353;DHT22;10834;52.268;6.770;2023-04-25T12:10:19;15.90;56.60
21353;DHT22;10834;52.268;6.770;2023-04-25T12:13:26;15.70;58.40
21353;DHT22;10834;52.268;6.770;2023-04-25T12:16:13;15.60;58.60
21353;DHT22;10834;52.268;6.770;2023-04-25T12:18:59;16.30;58.80
21353;DHT22;10834;52.268;6.770;2023-04-25T12:21:46;16.90;57.20
21353;DHT22;10834;52.268;6.770;2023-04-25T12:24:34;17.20;54.90
21353;DHT22;10834;52.268;6.770;2023-04-25T12:27:20;17.20;52.70
21353;DHT22;10834;52.268;6.770;2023-04-25T12:30:06;16.70;53.10
21353;DHT22;10834;52.268;6.770;2023-04-25T12:32:52;16.30;53.00
21353;DHT22;10834;52.268;6.770;2023-04-25T12:35:38;15.90;53.40
21353;DHT22;10834;52.268;6.770;2023-04-25T12:38:26;15.80;56.30
21353;DHT22;10834;52.268;6.770;2023-04-25T12:41:12;15.80;54.70
21353;DHT22;10834;52.268;6.770;2023-04-25T12:43:59;15.70;54.90
21353;DHT22;10834;52.268;6.770;2023-04-25T12:46:45;16.00;56.10
21353;DHT22;10834;52.268;6.770;2023-04-25T12:49:31;16.30;56.70
21353;DHT22;10834;52.268;6.770;2023-04-25T12:52:17;16.00;55.70
21353;DHT22;10834;52.268;6.770;2023-04-25T12:55:04;15.50;58.00
21353;DHT22;10834;52.268;6.770;2023-04-25T12:57:50;15.00;57.40
21353;DHT22;10834;52.268;6.770;2023-04-25T13:00:36;14.70;59.50
21353;DHT22;10834;52.268;6.770;2023-04-25T13:03:22;14.70;60.80
21353;DHT22;10834;52.268;6.770;2023-04-25T13:06:08;14.70;63.20
21353;DHT22;10834;52.268;6.770;2023-04-25T13:08:55;14.80;63.10
21353;DHT22;10834;52.268;6.770;2023-04-25T13:11:41;15.10;58.30
21353;DHT22;10834;52.268;6.770;2023-04-25T13:14:27;15.30;57.90
21353;DHT22;10834;52.268;6.770;2023-04-25T13:17:13;15.50;55.40
21353;DHT22;10834;52.268;6.770;2023-04-25T13:19:59;15.40;53.70
21353;DHT22;10834;52.268;6.770;2023-04-25T13:22:45;15.00;51.60
21353;DHT22;10834;52.268;6.770;2023-04-25T13:25:32;14.80;52.40
21353;DHT22;10834;52.268;6.770;2023-04-25T13:28:18;14.90;53.40
21353;DHT22;10834;52.268;6.770;2023-04-25T13:31:05;15.30;54.20
21353;DHT22;10834;52.268;6.770;2023-04-25T13:33:51;15.50;51.50
21353;DHT22;10834;52.268;6.770;2023-04-25T13:36:37;15.70;51.20
21353;DHT22;10834;52.268;6.770;2023-04-25T13:39:23;15.90;51.40
21353;DHT22;10834;52.268;6.770;2023-04-25T13:42:09;16.30;51.30
21353;DHT22;10834;52.268;6.770;2023-04-25T13:44:56;16.60;51.00
21353;DHT22;10834;52.268;6.770;2023-04-25T13:47:42;16.70;51.60
21353;DHT22;10834;52.268;6.770;2023-04-25T13:50:28;16.70;50.90
21353;DHT22;10834;52.268;6.770;2023-04-25T13:53:14;16.80;52.10
21353;DHT22;10834;52.268;6.770;2023-04-25T13:56:00;16.60;51.00
21353;DHT22;10834;52.268;6.770;2023-04-25T13:58:47;16.50;52.10
21353;DHT22;10834;52.268;6.770;2023-04-25T14:01:33;16.40;52.70
21353;DHT22;10834;52.268;6.770;2023-04-25T14:04:21;16.50;53.80
21353;DHT22;10834;52.268;6.770;2023-04-25T14:07:07;16.50;53.80
21353;DHT22;10834;52.268;6.770;2023-04-25T14:09:53;16.40;52.90
21353;DHT22;10834;52.268;6.770;2023-04-25T14:12:39;16.30;51.60
21353;DHT22;10834;52.268;6.770;2023-04-25T14:15:25;15.90;51.30
21353;DHT22;10834;52.268;6.770;2023-04-25T14:18:11;15.50;51.80
21353;DHT22;10834;52.268;6.770;2023-04-25T14:20:57;15.20;53.70
21353;DHT22;10834;52.268;6.770;2023-04-25T14:23:44;15.40;54.90
21353;DHT22;10834;52.268;6.770;2023-04-25T14:26:30;15.40;51.60
21353;DHT22;10834;52.268;6.770;2023-04-25T14:29:16;15.10;49.50
21353;DHT22;10834;52.268;6.770;2023-04-25T14:32:02;14.60;49.30
21353;DHT22;10834;52.268;6.770;2023-04-25T14:34:48;14.20;50.60
21353;DHT22;10834;52.268;6.770;2023-04-25T14:37:34;13.90;52.20
21353;DHT22;10834;52.268;6.770;2023-04-25T14:40:20;13.80;52.70
21353;DHT22;10834;52.268;6.770;2023-04-25T14:43:08;13.70;54.10
21353;DHT22;10834;52.268;6.770;2023-04-25T14:45:54;13.60;53.80
21353;DHT22;10834;52.268;6.770;2023-04-25T14:48:41;13.60;55.80
21353;DHT22;10834;52.268;6.770;2023-04-25T14:51:27;13.50;54.50
21353;DHT22;10834;52.268;6.770;2023-04-25T14:54:13;13.40;54.70
21353;DHT22;10834;52.268;6.770;2023-04-25T14:56:59;13.40;54.30
21353;DHT22;10834;52.268;6.770;2023-04-25T14:59:46;13.30;54.50
21353;DHT22;10834;52.268;6.770;2023-04-25T15:02:33;12.90;59.70
21353;DHT22;10834;52.268;6.770;2023-04-25T15:05:19;12.40;70.20
21353;DHT22;10834;52.268;6.770;2023-04-25T15:08:06;12.00;79.20
21353;DHT22;10834;52.268;6.770;2023-04-25T15:10:52;11.70;86.30
21353;DHT22;10834;52.268;6.770;2023-04-25T15:13:38;11.40;90.70
21353;DHT22;10834;52.268;6.770;2023-04-25T15:16:24;11.20;94.80
21353;DHT22;10834;52.268;6.770;2023-04-25T15:19:10;11.10;98.40
21353;DHT22;10834;52.268;6.770;2023-04-25T15:21:56;11.10;99.90
21353;DHT22;10834;52.268;6.770;2023-04-25T15:24:46;11.00;99.90
21353;DHT22;10834;52.268;6.770;2023-04-25T15:27:32;10.90;99.90
21353;DHT22;10834;52.268;6.770;2023-04-25T15:30:19;11.00;99.90
21353;DHT22;10834;52.268;6.770;2023-04-25T15:33:05;11.10;99.90
21353;DHT22;10834;52.268;6.770;2023-04-25T15:35:51;11.20;99.90
21353;DHT22;10834;52.268;6.770;2023-04-25T15:38:37;11.40;99.60
21353;DHT22;10834;52.268;6.770;2023-04-25T15:41:24;11.50;98.20
21353;DHT22;10834;52.268;6.770;2023-04-25T15:44:11;11.50;98.60
21353;DHT22;10834;52.268;6.770;2023-04-25T15:46:57;11.40;97.00
21353;DHT22;10834;52.268;6.770;2023-04-25T15:49:43;11.30;93.20
21353;DHT22;10834;52.268;6.770;2023-04-25T15:52:29;11.20;92.00
21353;DHT22;10834;52.268;6.770;2023-04-25T15:55:16;11.30;94.50
21353;DHT22;10834;52.268;6.770;2023-04-25T15:58:03;11.40;93.90
21353;DHT22;10834;52.268;6.770;2023-04-25T16:00:49;11.40;94.50
21353;DHT22;10834;52.268;6.770;2023-04-25T16:03:36;11.30;93.30
21353;DHT22;10834;52.268;6.770;2023-04-25T16:06:24;11.10;93.20
21353;DHT22;10834;52.268;6.770;2023-04-25T16:09:10;11.10;90.70
21353;DHT22;10834;52.268;6.770;2023-04-25T16:11:56;11.00;88.50
21353;DHT22;10834;52.268;6.770;2023-04-25T16:14:42;11.00;88.50
21353;DHT22;10834;52.268;6.770;2023-04-25T16:17:29;10.90;88.70
21353;DHT22;10834;52.268;6.770;2023-04-25T16:20:15;10.90;91.10
21353;DHT22;10834;52.268;6.770;2023-04-25T16:23:01;10.90;92.50
21353;DHT22;10834;52.268;6.770;2023-04-25T16:25:48;10.80;92.20
21353;DHT22;10834;52.268;6.770;2023-04-25T16:28:35;10.70;93.90
21353;DHT22;10834;52.268;6.770;2023-04-25T16:31:21;10.50;95.70
21353;DHT22;10834;52.268;6.770;2023-04-25T16:34:07;10.30;95.60
21353;DHT22;10834;52.268;6.770;2023-04-25T16:36:55;10.10;97.50
21353;DHT22;10834;52.268;6.770;2023-04-25T16:39:41;9.90;97.90
21353;DHT22;10834;52.268;6.770;2023-04-25T16:42:27;9.80;97.60
21353;DHT22;10834;52.268;6.770;2023-04-25T16:45:13;9.70;93.20
21353;DHT22;10834;52.268;6.770;2023-04-25T16:48:01;9.70;92.90
21353;DHT22;10834;52.268;6.770;2023-04-25T16:50:47;9.80;94.50
21353;DHT22;10834;52.268;6.770;2023-04-25T16:53:33;9.90;95.40
21353;DHT22;10834;52.268;6.770;2023-04-25T16:56:19;9.90;95.00
21353;DHT22;10834;52.268;6.770;2023-04-25T16:59:05;10.00;96.60
21353;DHT22;10834;52.268;6.770;2023-04-25T17:01:51;9.90;95.20
21353;DHT22;10834;52.268;6.770;2023-04-25T17:04:37;9.90;95.90
21353;DHT22;10834;52.268;6.770;2023-04-25T17:07:23;9.90;96.00
21353;DHT22;10834;52.268;6.770;2023-04-25T17:10:10;10.00;96.00
21353;DHT22;10834;52.268;6.770;2023-04-25T17:12:57;9.90;96.20
21353;DHT22;10834;52.268;6.770;2023-04-25T17:15:43;9.90;94.90
21353;DHT22;10834;52.268;6.770;2023-04-25T17:18:31;9.80;96.90
21353;DHT22;10834;52.268;6.770;2023-04-25T17:21:17;9.70;99.70
21353;DHT22;10834;52.268;6.770;2023-04-25T17:24:03;9.80;99.90
21353;DHT22;10834;52.268;6.770;2023-04-25T17:26:54;9.70;99.90
21353;DHT22;10834;52.268;6.770;2023-04-25T17:29:42;9.60;99.90
21353;DHT22;10834;52.268;6.770;2023-04-25T17:32:28;9.40;99.90
21353;DHT22;10834;52.268;6.770;2023-04-25T17:35:14;9.10;99.90
21353;DHT22;10834;52.268;6.770;2023-04-25T17:38:02;8.90;99.90
21353;DHT22;10834;52.268;6.770;2023-04-25T17:40:48;8.70;99.90
21353;DHT22;10834;52.268;6.770;2023-04-25T17:43:35;8.50;99.90
21353;DHT22;10834;52.268;6.770;2023-04-25T17:46:21;8.50;99.90